sensor_id;sensor_type;location;lat;lon;timestamp;temperature;humidity
41924;DHT22;27613;48.116;11.656;2023-12-29T00:02:24;8.80;93.30
41924;DHT22;27613;48.116;11.656;2023-12-29T00:04:50;8.70;93.50
41924;DHT22;27613;48.116;11.656;2023-12-29T00:07:15;8.80;93.20
41924;DHT22;27613;48.116;11.656;2023-12-29T00:09:41;8.70;93.50
41924;DHT22;27613;48.116;11.656;2023-12-29T00:12:07;8.70;93.70
41924;DHT22;27613;48.116;11.656;2023-12-29T00:14:34;8.60;94.10
41924;DHT22;27613;48.116;11.656;2023-12-29T00:17:02;8.40;94.20
41924;DHT22;27613;48.116;11.656;2023-12-29T00:19:28;8.30;93.20
41924;DHT22;27613;48.116;11.656;2023-12-29T00:21:53;8.20;92.90
41924;DHT22;27613;48.116;11.656;2023-12-29T00:24:19;8.00;92.30
41924;DHT22;27613;48.116;11.656;2023-12-29T00:26:45;7.90;91.90
41924;DHT22;27613;48.116;11.656;2023-12-29T00:29:10;7.90;90.90
41924;DHT22;27613;48.116;11.656;2023-12-29T00:31:36;7.90;90.70
41924;DHT22;27613;48.116;11.656;2023-12-29T00:34:01;7.80;90.40
41924;DHT22;27613;48.116;11.656;2023-12-29T00:36:27;7.80;90.20
41924;DHT22;27613;48.116;11.656;2023-12-29T00:38:52;7.70;90.40
41924;DHT22;27613;48.116;11.656;2023-12-29T00:41:18;7.60;90.60
41924;DHT22;27613;48.116;11.656;2023-12-29T00:43:43;7.50;90.60
41924;DHT22;27613;48.116;11.656;2023-12-29T00:46:09;7.60;90.70
41924;DHT22;27613;48.116;11.656;2023-12-29T00:48:34;7.70;90.70
41924;DHT22;27613;48.116;11.656;2023-12-29T00:51:03;7.70;90.80
41924;DHT22;27613;48.116;11.656;2023-12-29T00:53:29;7.60;90.90
41924;DHT22;27613;48.116;11.656;2023-12-29T00:55:57;7.50;91.00
41924;DHT22;27613;48.116;11.656;2023-12-29T00:58:23;7.50;91.40
41924;DHT22;27613;48.116;11.656;2023-12-29T01:00:48;7.40;91.60
41924;DHT22;27613;48.116;11.656;2023-12-29T01:03:14;7.40;91.80
41924;DHT22;27613;48.116;11.656;2023-12-29T01:05:39;7.30;92.10
41924;DHT22;27613;48.116;11.656;2023-12-29T01:08:05;7.20;92.20
41924;DHT22;27613;48.116;11.656;2023-12-29T01:10:32;7.20;92.40
41924;DHT22;27613;48.116;11.656;2023-12-29T01:12:57;7.20;92.70
41924;DHT22;27613;48.116;11.656;2023-12-29T01:15:23;7.10;92.80
41924;DHT22;27613;48.116;11.656;2023-12-29T01:17:48;7.20;92.80
41924;DHT22;27613;48.116;11.656;2023-12-29T01:20:14;7.10;93.10
41924;DHT22;27613;48.116;11.656;2023-12-29T01:22:39;7.10;93.20
41924;DHT22;27613;48.116;11.656;2023-12-29T01:25:05;7.00;93.50
41924;DHT22;27613;48.116;11.656;2023-12-29T01:27:32;6.90;93.60
41924;DHT22;27613;48.116;11.656;2023-12-29T01:29:58;7.00;93.70
41924;DHT22;27613;48.116;11.656;2023-12-29T01:32:27;6.90;93.90
41924;DHT22;27613;48.116;11.656;2023-12-29T01:34:53;6.80;94.10
41924;DHT22;27613;48.116;11.656;2023-12-29T01:37:18;6.80;94.10
41924;DHT22;27613;48.116;11.656;2023-12-29T01:39:44;6.90;94.00
41924;DHT22;27613;48.116;11.656;2023-12-29T01:42:09;6.80;94.10
41924;DHT22;27613;48.116;11.656;2023-12-29T01:44:36;6.80;93.90
41924;DHT22;27613;48.116;11.656;2023-12-29T01:47:11;6.80;94.00
41924;DHT22;27613;48.116;11.656;2023-12-29T01:49:38;6.80;94.00
41924;DHT22;27613;48.116;11.656;2023-12-29T01:52:05;6.80;94.10
41924;DHT22;27613;48.116;11.656;2023-12-29T01:54:34;6.70;94.20
41924;DHT22;27613;48.116;11.656;2023-12-29T01:57:01;6.60;94.50
41924;DHT22;27613;48.116;11.656;2023-12-29T01:59:28;6.60;94.50
41924;DHT22;27613;48.116;11.656;2023-12-29T02:01:57;6.70;94.40
41924;DHT22;27613;48.116;11.656;2023-12-29T02:04:26;6.70;94.50
41924;DHT22;27613;48.116;11.656;2023-12-29T02:06:52;6.60;94.50
41924;DHT22;27613;48.116;11.656;2023-12-29T02:09:18;6.60;94.70
41924;DHT22;27613;48.116;11.656;2023-12-29T02:11:45;6.50;95.00
41924;DHT22;27613;48.116;11.656;2023-12-29T02:14:10;6.60;94.80
41924;DHT22;27613;48.116;11.656;2023-12-29T02:16:57;6.60;94.60
41924;DHT22;27613;48.116;11.656;2023-12-29T02:19:40;6.70;94.50
41924;DHT22;27613;48.116;11.656;2023-12-29T02:22:06;6.70;94.50
41924;DHT22;27613;48.116;11.656;2023-12-29T02:24:36;6.60;94.40
41924;DHT22;27613;48.116;11.656;2023-12-29T02:27:27;6.60;94.60
41924;DHT22;27613;48.116;11.656;2023-12-29T02:30:29;6.70;94.40
41924;DHT22;27613;48.116;11.656;2023-12-29T02:32:59;6.70;94.20
41924;DHT22;27613;48.116;11.656;2023-12-29T02:35:28;6.80;94.00
41924;DHT22;27613;48.116;11.656;2023-12-29T02:37:55;6.70;94.00
41924;DHT22;27613;48.116;11.656;2023-12-29T02:40:21;6.60;94.10
41924;DHT22;27613;48.116;11.656;2023-12-29T02:42:47;6.70;93.60
41924;DHT22;27613;48.116;11.656;2023-12-29T02:45:14;6.70;93.40
41924;DHT22;27613;48.116;11.656;2023-12-29T02:47:40;6.60;93.50
41924;DHT22;27613;48.116;11.656;2023-12-29T02:50:06;6.60;93.60
41924;DHT22;27613;48.116;11.656;2023-12-29T02:52:34;6.50;93.70
41924;DHT22;27613;48.116;11.656;2023-12-29T02:54:59;6.70;93.20
41924;DHT22;27613;48.116;11.656;2023-12-29T02:57:25;6.80;92.80
41924;DHT22;27613;48.116;11.656;2023-12-29T02:59:50;6.80;92.70
41924;DHT22;27613;48.116;11.656;2023-12-29T03:02:16;6.70;92.70
41924;DHT22;27613;48.116;11.656;2023-12-29T03:04:42;6.90;92.20
41924;DHT22;27613;48.116;11.656;2023-12-29T03:07:08;6.70;92.50
41924;DHT22;27613;48.116;11.656;2023-12-29T03:09:34;6.60;92.40
41924;DHT22;27613;48.116;11.656;2023-12-29T03:11:59;6.80;91.90
41924;DHT22;27613;48.116;11.656;2023-12-29T03:14:25;6.70;92.00
41924;DHT22;27613;48.116;11.656;2023-12-29T03:16:50;6.80;91.70
41924;DHT22;27613;48.116;11.656;2023-12-29T03:19:16;6.80;91.30
41924;DHT22;27613;48.116;11.656;2023-12-29T03:21:41;6.90;91.10
41924;DHT22;27613;48.116;11.656;2023-12-29T03:24:07;6.80;91.20
41924;DHT22;27613;48.116;11.656;2023-12-29T03:26:32;7.00;90.70
41924;DHT22;27613;48.116;11.656;2023-12-29T03:28:58;6.90;90.80
41924;DHT22;27613;48.116;11.656;2023-12-29T03:31:23;6.90;90.80
41924;DHT22;27613;48.116;11.656;2023-12-29T03:33:49;7.00;90.60
41924;DHT22;27613;48.116;11.656;2023-12-29T03:36:14;7.00;90.30
41924;DHT22;27613;48.116;11.656;2023-12-29T03:38:40;7.00;90.20
41924;DHT22;27613;48.116;11.656;2023-12-29T03:41:05;7.00;90.20
41924;DHT22;27613;48.116;11.656;2023-12-29T03:43:31;6.90;90.20
41924;DHT22;27613;48.116;11.656;2023-12-29T03:45:56;7.00;89.70
41924;DHT22;27613;48.116;11.656;2023-12-29T03:48:22;7.00;90.40
41924;DHT22;27613;48.116;11.656;2023-12-29T03:50:47;6.90;90.00
41924;DHT22;27613;48.116;11.656;2023-12-29T03:53:13;7.00;89.70
41924;DHT22;27613;48.116;11.656;2023-12-29T03:55:40;6.90;89.90
41924;DHT22;27613;48.116;11.656;2023-12-29T03:58:06;6.70;90.20
41924;DHT22;27613;48.116;11.656;2023-12-29T04:00:32;6.80;89.80
41924;DHT22;27613;48.116;11.656;2023-12-29T04:02:57;6.90;89.20
41924;DHT22;27613;48.116;11.656;2023-12-29T04:05:22;7.20;87.90
41924;DHT22;27613;48.116;11.656;2023-12-29T04:07:48;7.00;88.10
41924;DHT22;27613;48.116;11.656;2023-12-29T04:10:14;7.20;87.50
41924;DHT22;27613;48.116;11.656;2023-12-29T04:12:39;7.40;86.90
41924;DHT22;27613;48.116;11.656;2023-12-29T04:15:05;7.50;86.00
41924;DHT22;27613;48.116;11.656;2023-12-29T04:17:31;7.60;86.10
41924;DHT22;27613;48.116;11.656;2023-12-29T04:19:56;7.60;85.50
41924;DHT22;27613;48.116;11.656;2023-12-29T04:22:22;7.70;85.60
41924;DHT22;27613;48.116;11.656;2023-12-29T04:24:48;7.60;85.70
41924;DHT22;27613;48.116;11.656;2023-12-29T04:27:15;7.80;84.70
41924;DHT22;27613;48.116;11.656;2023-12-29T04:29:40;8.00;84.10
41924;DHT22;27613;48.116;11.656;2023-12-29T04:32:06;8.00;84.00
41924;DHT22;27613;48.116;11.656;2023-12-29T04:34:31;7.90;84.40
41924;DHT22;27613;48.116;11.656;2023-12-29T04:36:57;7.90;84.30
41924;DHT22;27613;48.116;11.656;2023-12-29T04:39:22;7.90;84.50
41924;DHT22;27613;48.116;11.656;2023-12-29T04:41:48;7.80;84.90
41924;DHT22;27613;48.116;11.656;2023-12-29T04:44:13;7.60;85.80
41924;DHT22;27613;48.116;11.656;2023-12-29T04:46:39;7.50;85.60
41924;DHT22;27613;48.116;11.656;2023-12-29T04:49:04;7.50;86.00
41924;DHT22;27613;48.116;11.656;2023-12-29T04:51:30;7.40;86.30
41924;DHT22;27613;48.116;11.656;2023-12-29T04:53:55;7.30;86.80
41924;DHT22;27613;48.116;11.656;2023-12-29T04:56:21;7.30;86.90
41924;DHT22;27613;48.116;11.656;2023-12-29T04:58:46;7.30;86.50
41924;DHT22;27613;48.116;11.656;2023-12-29T05:01:12;7.30;86.80
41924;DHT22;27613;48.116;11.656;2023-12-29T05:03:37;7.20;86.70
41924;DHT22;27613;48.116;11.656;2023-12-29T05:06:03;7.20;86.50
41924;DHT22;27613;48.116;11.656;2023-12-29T05:08:28;7.30;86.40
41924;DHT22;27613;48.116;11.656;2023-12-29T05:10:54;7.20;86.80
41924;DHT22;27613;48.116;11.656;2023-12-29T05:13:20;7.20;86.90
41924;DHT22;27613;48.116;11.656;2023-12-29T05:15:46;7.30;87.10
41924;DHT22;27613;48.116;11.656;2023-12-29T05:18:11;7.30;86.30
41924;DHT22;27613;48.116;11.656;2023-12-29T05:20:37;7.30;86.50
41924;DHT22;27613;48.116;11.656;2023-12-29T05:23:02;7.20;86.40
41924;DHT22;27613;48.116;11.656;2023-12-29T05:25:28;7.30;86.50
41924;DHT22;27613;48.116;11.656;2023-12-29T05:27:54;7.30;86.90
41924;DHT22;27613;48.116;11.656;2023-12-29T05:30:19;7.30;87.00
41924;DHT22;27613;48.116;11.656;2023-12-29T05:32:45;7.30;87.80
41924;DHT22;27613;48.116;11.656;2023-12-29T05:35:10;7.40;87.50
41924;DHT22;27613;48.116;11.656;2023-12-29T05:37:36;7.50;87.50
41924;DHT22;27613;48.116;11.656;2023-12-29T05:40:01;7.60;87.60
41924;DHT22;27613;48.116;11.656;2023-12-29T05:42:27;7.60;87.40
41924;DHT22;27613;48.116;11.656;2023-12-29T05:44:53;7.80;87.40
41924;DHT22;27613;48.116;11.656;2023-12-29T05:47:18;7.70;87.80
41924;DHT22;27613;48.116;11.656;2023-12-29T05:49:44;7.70;87.60
41924;DHT22;27613;48.116;11.656;2023-12-29T05:52:09;7.60;87.80
41924;DHT22;27613;48.116;11.656;2023-12-29T05:54:35;7.60;88.10
41924;DHT22;27613;48.116;11.656;2023-12-29T05:57:01;7.50;88.50
41924;DHT22;27613;48.116;11.656;2023-12-29T05:59:26;7.50;88.60
41924;DHT22;27613;48.116;11.656;2023-12-29T06:01:52;7.60;88.50
41924;DHT22;27613;48.116;11.656;2023-12-29T06:04:18;7.60;88.70
41924;DHT22;27613;48.116;11.656;2023-12-29T06:06:43;7.60;88.40
41924;DHT22;27613;48.116;11.656;2023-12-29T06:09:09;7.70;88.10
41924;DHT22;27613;48.116;11.656;2023-12-29T06:11:36;7.70;88.30
41924;DHT22;27613;48.116;11.656;2023-12-29T06:14:01;7.70;87.50
41924;DHT22;27613;48.116;11.656;2023-12-29T06:16:27;7.80;87.20
41924;DHT22;27613;48.116;11.656;2023-12-29T06:18:53;7.70;87.20
41924;DHT22;27613;48.116;11.656;2023-12-29T06:21:18;7.70;87.40
41924;DHT22;27613;48.116;11.656;2023-12-29T06:23:44;8.00;85.90
41924;DHT22;27613;48.116;11.656;2023-12-29T06:26:17;7.90;85.90
41924;DHT22;27613;48.116;11.656;2023-12-29T06:28:43;7.80;86.40
41924;DHT22;27613;48.116;11.656;2023-12-29T06:31:09;7.90;85.50
41924;DHT22;27613;48.116;11.656;2023-12-29T06:33:34;7.90;85.50
41924;DHT22;27613;48.116;11.656;2023-12-29T06:36:00;8.10;84.30
41924;DHT22;27613;48.116;11.656;2023-12-29T06:38:26;8.10;84.40
41924;DHT22;27613;48.116;11.656;2023-12-29T06:40:51;8.10;84.20
41924;DHT22;27613;48.116;11.656;2023-12-29T06:43:17;8.10;83.70
41924;DHT22;27613;48.116;11.656;2023-12-29T06:45:42;8.20;83.30
41924;DHT22;27613;48.116;11.656;2023-12-29T06:48:08;8.00;84.10
41924;DHT22;27613;48.116;11.656;2023-12-29T06:50:33;8.00;83.80
41924;DHT22;27613;48.116;11.656;2023-12-29T06:52:59;7.90;83.80
41924;DHT22;27613;48.116;11.656;2023-12-29T06:55:25;7.90;83.70
41924;DHT22;27613;48.116;11.656;2023-12-29T06:57:51;7.90;83.80
41924;DHT22;27613;48.116;11.656;2023-12-29T07:00:16;7.80;84.10
41924;DHT22;27613;48.116;11.656;2023-12-29T07:02:42;7.80;84.00
41924;DHT22;27613;48.116;11.656;2023-12-29T07:05:07;7.90;83.90
41924;DHT22;27613;48.116;11.656;2023-12-29T07:07:34;7.80;84.40
41924;DHT22;27613;48.116;11.656;2023-12-29T07:10:00;7.90;84.50
41924;DHT22;27613;48.116;11.656;2023-12-29T07:12:26;7.90;85.00
41924;DHT22;27613;48.116;11.656;2023-12-29T07:14:51;7.90;85.70
41924;DHT22;27613;48.116;11.656;2023-12-29T07:17:17;8.00;85.90
41924;DHT22;27613;48.116;11.656;2023-12-29T07:19:42;8.10;86.80
41924;DHT22;27613;48.116;11.656;2023-12-29T07:22:08;8.00;87.60
41924;DHT22;27613;48.116;11.656;2023-12-29T07:24:34;8.20;87.50
41924;DHT22;27613;48.116;11.656;2023-12-29T07:27:01;8.20;87.90
41924;DHT22;27613;48.116;11.656;2023-12-29T07:29:26;8.20;88.10
41924;DHT22;27613;48.116;11.656;2023-12-29T07:31:52;8.30;88.40
41924;DHT22;27613;48.116;11.656;2023-12-29T07:34:18;8.40;89.60
41924;DHT22;27613;48.116;11.656;2023-12-29T07:36:49;8.50;89.20
41924;DHT22;27613;48.116;11.656;2023-12-29T07:39:15;8.60;89.70
41924;DHT22;27613;48.116;11.656;2023-12-29T07:41:41;8.70;90.10
41924;DHT22;27613;48.116;11.656;2023-12-29T07:44:12;8.80;90.30
41924;DHT22;27613;48.116;11.656;2023-12-29T07:46:39;8.90;90.30
41924;DHT22;27613;48.116;11.656;2023-12-29T07:49:05;9.00;90.30
41924;DHT22;27613;48.116;11.656;2023-12-29T07:51:31;8.90;90.50
41924;DHT22;27613;48.116;11.656;2023-12-29T07:53:57;8.80;90.60
41924;DHT22;27613;48.116;11.656;2023-12-29T07:56:22;8.80;90.70
41924;DHT22;27613;48.116;11.656;2023-12-29T07:58:47;9.00;91.00
41924;DHT22;27613;48.116;11.656;2023-12-29T08:01:13;8.90;91.10
41924;DHT22;27613;48.116;11.656;2023-12-29T08:03:39;8.90;91.10
41924;DHT22;27613;48.116;11.656;2023-12-29T08:06:05;8.90;90.70
41924;DHT22;27613;48.116;11.656;2023-12-29T08:08:31;8.80;90.50
41924;DHT22;27613;48.116;11.656;2023-12-29T08:10:57;8.70;90.60
41924;DHT22;27613;48.116;11.656;2023-12-29T08:13:22;8.70;90.40
41924;DHT22;27613;48.116;11.656;2023-12-29T08:15:48;8.70;90.50
41924;DHT22;27613;48.116;11.656;2023-12-29T08:18:13;8.70;90.50
41924;DHT22;27613;48.116;11.656;2023-12-29T08:20:39;8.70;90.50
41924;DHT22;27613;48.116;11.656;2023-12-29T08:23:04;8.70;90.40
41924;DHT22;27613;48.116;11.656;2023-12-29T08:25:30;8.80;90.50
41924;DHT22;27613;48.116;11.656;2023-12-29T08:27:58;8.80;90.70
41924;DHT22;27613;48.116;11.656;2023-12-29T08:30:24;8.70;90.80
41924;DHT22;27613;48.116;11.656;2023-12-29T08:32:49;8.80;91.00
41924;DHT22;27613;48.116;11.656;2023-12-29T08:35:15;8.80;91.30
41924;DHT22;27613;48.116;11.656;2023-12-29T08:37:40;8.90;91.50
41924;DHT22;27613;48.116;11.656;2023-12-29T08:40:06;8.90;91.60
41924;DHT22;27613;48.116;11.656;2023-12-29T08:42:33;8.90;91.80
41924;DHT22;27613;48.116;11.656;2023-12-29T08:44:59;9.00;91.90
41924;DHT22;27613;48.116;11.656;2023-12-29T08:47:25;9.10;91.90
41924;DHT22;27613;48.116;11.656;2023-12-29T08:49:51;9.30;91.90
41924;DHT22;27613;48.116;11.656;2023-12-29T08:52:16;9.30;91.80
41924;DHT22;27613;48.116;11.656;2023-12-29T08:54:42;9.30;91.90
41924;DHT22;27613;48.116;11.656;2023-12-29T08:57:07;9.40;91.80
41924;DHT22;27613;48.116;11.656;2023-12-29T08:59:33;9.30;92.00
41924;DHT22;27613;48.116;11.656;2023-12-29T09:01:59;9.30;92.10
41924;DHT22;27613;48.116;11.656;2023-12-29T09:04:25;9.30;92.30
41924;DHT22;27613;48.116;11.656;2023-12-29T09:06:51;9.30;92.20
41924;DHT22;27613;48.116;11.656;2023-12-29T09:09:16;9.30;92.30
41924;DHT22;27613;48.116;11.656;2023-12-29T09:11:42;9.40;92.20
41924;DHT22;27613;48.116;11.656;2023-12-29T09:14:08;9.30;92.30
41924;DHT22;27613;48.116;11.656;2023-12-29T09:16:35;9.50;92.20
41924;DHT22;27613;48.116;11.656;2023-12-29T09:19:01;9.50;92.10
41924;DHT22;27613;48.116;11.656;2023-12-29T09:21:26;9.50;92.20
41924;DHT22;27613;48.116;11.656;2023-12-29T09:23:52;9.60;92.00
41924;DHT22;27613;48.116;11.656;2023-12-29T09:26:18;9.70;91.90
41924;DHT22;27613;48.116;11.656;2023-12-29T09:28:44;9.70;91.70
41924;DHT22;27613;48.116;11.656;2023-12-29T09:31:10;9.80;91.70
41924;DHT22;27613;48.116;11.656;2023-12-29T09:33:36;9.90;91.50
41924;DHT22;27613;48.116;11.656;2023-12-29T09:36:02;10.00;91.10
41924;DHT22;27613;48.116;11.656;2023-12-29T09:38:28;10.10;91.20
41924;DHT22;27613;48.116;11.656;2023-12-29T09:40:54;10.30;90.80
41924;DHT22;27613;48.116;11.656;2023-12-29T09:43:22;10.40;90.70
41924;DHT22;27613;48.116;11.656;2023-12-29T09:45:50;10.50;90.30
41924;DHT22;27613;48.116;11.656;2023-12-29T09:48:16;10.30;90.60
41924;DHT22;27613;48.116;11.656;2023-12-29T09:50:44;10.40;90.60
41924;DHT22;27613;48.116;11.656;2023-12-29T09:53:11;10.40;90.40
41924;DHT22;27613;48.116;11.656;2023-12-29T09:55:39;10.60;90.20
41924;DHT22;27613;48.116;11.656;2023-12-29T09:58:07;10.60;90.00
41924;DHT22;27613;48.116;11.656;2023-12-29T10:00:33;10.60;90.00
41924;DHT22;27613;48.116;11.656;2023-12-29T10:03:00;10.60;89.60
41924;DHT22;27613;48.116;11.656;2023-12-29T10:05:26;10.70;89.40
41924;DHT22;27613;48.116;11.656;2023-12-29T10:07:52;10.60;89.30
41924;DHT22;27613;48.116;11.656;2023-12-29T10:10:20;10.70;89.40
41924;DHT22;27613;48.116;11.656;2023-12-29T10:12:49;10.80;89.20
41924;DHT22;27613;48.116;11.656;2023-12-29T10:15:29;10.70;88.80
41924;DHT22;27613;48.116;11.656;2023-12-29T10:18:01;10.60;90.10
41924;DHT22;27613;48.116;11.656;2023-12-29T10:23:32;10.90;89.60
41924;DHT22;27613;48.116;11.656;2023-12-29T10:26:00;11.10;89.00
41924;DHT22;27613;48.116;11.656;2023-12-29T10:28:26;10.90;89.80
41924;DHT22;27613;48.116;11.656;2023-12-29T10:30:52;10.90;90.30
41924;DHT22;27613;48.116;11.656;2023-12-29T10:33:20;10.90;90.40
41924;DHT22;27613;48.116;11.656;2023-12-29T10:35:59;10.80;90.60
41924;DHT22;27613;48.116;11.656;2023-12-29T10:38:29;10.90;90.80
41924;DHT22;27613;48.116;11.656;2023-12-29T10:40:55;11.00;90.80
41924;DHT22;27613;48.116;11.656;2023-12-29T10:43:35;11.10;90.80
41924;DHT22;27613;48.116;11.656;2023-12-29T10:46:07;11.30;90.50
41924;DHT22;27613;48.116;11.656;2023-12-29T10:48:36;11.50;90.30
41924;DHT22;27613;48.116;11.656;2023-12-29T10:51:03;11.40;90.50
41924;DHT22;27613;48.116;11.656;2023-12-29T10:53:36;11.50;90.70
41924;DHT22;27613;48.116;11.656;2023-12-29T10:56:02;11.20;91.00
41924;DHT22;27613;48.116;11.656;2023-12-29T10:58:29;11.30;91.00
41924;DHT22;27613;48.116;11.656;2023-12-29T11:00:59;11.30;91.10
41924;DHT22;27613;48.116;11.656;2023-12-29T11:03:25;11.10;91.30
41924;DHT22;27613;48.116;11.656;2023-12-29T11:05:58;11.40;91.20
41924;DHT22;27613;48.116;11.656;2023-12-29T11:08:25;11.50;90.80
41924;DHT22;27613;48.116;11.656;2023-12-29T11:10:50;11.40;90.80
41924;DHT22;27613;48.116;11.656;2023-12-29T11:13:16;11.50;90.70
41924;DHT22;27613;48.116;11.656;2023-12-29T11:15:43;11.50;90.70
41924;DHT22;27613;48.116;11.656;2023-12-29T11:18:16;11.70;90.50
41924;DHT22;27613;48.116;11.656;2023-12-29T11:20:45;12.00;90.00
41924;DHT22;27613;48.116;11.656;2023-12-29T11:23:12;12.40;89.00
41924;DHT22;27613;48.116;11.656;2023-12-29T11:25:43;12.30;88.60
41924;DHT22;27613;48.116;11.656;2023-12-29T11:28:11;12.40;88.30
41924;DHT22;27613;48.116;11.656;2023-12-29T11:30:39;12.40;88.00
41924;DHT22;27613;48.116;11.656;2023-12-29T11:33:24;12.50;88.00
41924;DHT22;27613;48.116;11.656;2023-12-29T11:35:56;12.60;87.20
41924;DHT22;27613;48.116;11.656;2023-12-29T11:38:35;12.50;87.40
41924;DHT22;27613;48.116;11.656;2023-12-29T11:43:43;12.00;89.70
41924;DHT22;27613;48.116;11.656;2023-12-29T11:46:32;12.00;89.00
41924;DHT22;27613;48.116;11.656;2023-12-29T11:48:57;12.00;88.80
41924;DHT22;27613;48.116;11.656;2023-12-29T11:51:43;12.00;89.30
41924;DHT22;27613;48.116;11.656;2023-12-29T11:54:10;11.80;89.60
41924;DHT22;27613;48.116;11.656;2023-12-29T11:56:40;12.00;89.20
41924;DHT22;27613;48.116;11.656;2023-12-29T12:01:41;11.90;89.50
41924;DHT22;27613;48.116;11.656;2023-12-29T12:07:07;11.80;89.00
41924;DHT22;27613;48.116;11.656;2023-12-29T12:09:34;12.10;88.50
41924;DHT22;27613;48.116;11.656;2023-12-29T12:12:01;12.30;88.20
41924;DHT22;27613;48.116;11.656;2023-12-29T12:14:48;12.30;87.80
41924;DHT22;27613;48.116;11.656;2023-12-29T12:17:33;12.20;88.10
41924;DHT22;27613;48.116;11.656;2023-12-29T12:20:09;12.10;88.20
41924;DHT22;27613;48.116;11.656;2023-12-29T12:22:35;12.30;87.80
41924;DHT22;27613;48.116;11.656;2023-12-29T12:25:00;12.10;88.00
41924;DHT22;27613;48.116;11.656;2023-12-29T12:27:27;12.10;88.30
41924;DHT22;27613;48.116;11.656;2023-12-29T12:29:57;12.10;88.30
41924;DHT22;27613;48.116;11.656;2023-12-29T12:32:28;12.10;88.60
41924;DHT22;27613;48.116;11.656;2023-12-29T12:34:55;12.20;87.70
41924;DHT22;27613;48.116;11.656;2023-12-29T12:37:22;12.10;88.10
41924;DHT22;27613;48.116;11.656;2023-12-29T12:39:48;12.20;87.80
41924;DHT22;27613;48.116;11.656;2023-12-29T12:42:15;11.90;88.40
41924;DHT22;27613;48.116;11.656;2023-12-29T12:44:45;11.90;88.60
41924;DHT22;27613;48.116;11.656;2023-12-29T12:47:18;11.90;88.90
41924;DHT22;27613;48.116;11.656;2023-12-29T12:49:44;11.80;89.10
41924;DHT22;27613;48.116;11.656;2023-12-29T12:52:10;11.90;88.90
41924;DHT22;27613;48.116;11.656;2023-12-29T12:54:36;11.80;88.80
41924;DHT22;27613;48.116;11.656;2023-12-29T12:57:02;11.60;89.60
41924;DHT22;27613;48.116;11.656;2023-12-29T12:59:28;11.70;89.10
41924;DHT22;27613;48.116;11.656;2023-12-29T13:01:54;11.70;89.10
41924;DHT22;27613;48.116;11.656;2023-12-29T13:04:19;11.70;88.70
41924;DHT22;27613;48.116;11.656;2023-12-29T13:06:45;11.60;88.90
41924;DHT22;27613;48.116;11.656;2023-12-29T13:09:11;11.60;89.00
41924;DHT22;27613;48.116;11.656;2023-12-29T13:11:41;11.50;89.10
41924;DHT22;27613;48.116;11.656;2023-12-29T13:14:07;11.70;89.20
41924;DHT22;27613;48.116;11.656;2023-12-29T13:16:36;11.60;89.20
41924;DHT22;27613;48.116;11.656;2023-12-29T13:19:23;11.50;89.30
41924;DHT22;27613;48.116;11.656;2023-12-29T13:21:53;11.50;88.90
41924;DHT22;27613;48.116;11.656;2023-12-29T13:24:21;11.30;88.70
41924;DHT22;27613;48.116;11.656;2023-12-29T13:26:47;11.20;89.10
41924;DHT22;27613;48.116;11.656;2023-12-29T13:29:22;11.20;89.10
41924;DHT22;27613;48.116;11.656;2023-12-29T13:31:52;11.20;89.50
41924;DHT22;27613;48.116;11.656;2023-12-29T13:34:27;11.20;89.50
41924;DHT22;27613;48.116;11.656;2023-12-29T13:37:02;11.20;89.60
41924;DHT22;27613;48.116;11.656;2023-12-29T13:39:44;11.20;89.30
41924;DHT22;27613;48.116;11.656;2023-12-29T13:42:11;11.10;89.50
41924;DHT22;27613;48.116;11.656;2023-12-29T13:44:39;11.10;90.00
41924;DHT22;27613;48.116;11.656;2023-12-29T13:47:05;11.10;89.90
41924;DHT22;27613;48.116;11.656;2023-12-29T13:49:31;11.00;90.10
41924;DHT22;27613;48.116;11.656;2023-12-29T13:52:04;11.10;90.00
41924;DHT22;27613;48.116;11.656;2023-12-29T13:54:30;11.10;90.00
41924;DHT22;27613;48.116;11.656;2023-12-29T13:56:56;11.10;90.00
41924;DHT22;27613;48.116;11.656;2023-12-29T13:59:31;11.00;90.10
41924;DHT22;27613;48.116;11.656;2023-12-29T14:02:02;11.00;90.20
41924;DHT22;27613;48.116;11.656;2023-12-29T14:04:28;11.00;90.20
41924;DHT22;27613;48.116;11.656;2023-12-29T14:06:59;10.90;90.10
41924;DHT22;27613;48.116;11.656;2023-12-29T14:09:26;10.90;90.30
41924;DHT22;27613;48.116;11.656;2023-12-29T14:11:52;10.90;90.20
41924;DHT22;27613;48.116;11.656;2023-12-29T14:14:22;10.90;90.10
41924;DHT22;27613;48.116;11.656;2023-12-29T14:16:48;10.80;89.50
41924;DHT22;27613;48.116;11.656;2023-12-29T14:19:14;10.90;89.40
41924;DHT22;27613;48.116;11.656;2023-12-29T14:21:40;10.90;89.30
41924;DHT22;27613;48.116;11.656;2023-12-29T14:24:11;10.80;89.20
41924;DHT22;27613;48.116;11.656;2023-12-29T14:26:41;10.80;88.90
41924;DHT22;27613;48.116;11.656;2023-12-29T14:29:11;10.70;89.10
41924;DHT22;27613;48.116;11.656;2023-12-29T14:31:43;10.70;89.20
41924;DHT22;27613;48.116;11.656;2023-12-29T14:34:09;10.70;89.20
41924;DHT22;27613;48.116;11.656;2023-12-29T14:36:36;10.70;89.20
41924;DHT22;27613;48.116;11.656;2023-12-29T14:39:02;10.60;89.60
41924;DHT22;27613;48.116;11.656;2023-12-29T14:41:29;10.60;89.50
41924;DHT22;27613;48.116;11.656;2023-12-29T14:43:54;10.50;89.80
41924;DHT22;27613;48.116;11.656;2023-12-29T14:46:20;10.50;89.80
41924;DHT22;27613;48.116;11.656;2023-12-29T14:48:46;10.50;89.60
41924;DHT22;27613;48.116;11.656;2023-12-29T14:51:12;10.50;89.60
41924;DHT22;27613;48.116;11.656;2023-12-29T14:53:38;10.50;89.80
41924;DHT22;27613;48.116;11.656;2023-12-29T14:56:04;10.50;89.80
41924;DHT22;27613;48.116;11.656;2023-12-29T14:58:30;10.40;90.10
41924;DHT22;27613;48.116;11.656;2023-12-29T15:00:57;10.40;90.20
41924;DHT22;27613;48.116;11.656;2023-12-29T15:03:23;10.30;90.30
41924;DHT22;27613;48.116;11.656;2023-12-29T15:05:49;10.30;90.40
41924;DHT22;27613;48.116;11.656;2023-12-29T15:08:15;10.20;90.40
41924;DHT22;27613;48.116;11.656;2023-12-29T15:10:41;10.20;90.50
41924;DHT22;27613;48.116;11.656;2023-12-29T15:13:06;10.10;90.60
41924;DHT22;27613;48.116;11.656;2023-12-29T15:15:33;10.10;90.70
41924;DHT22;27613;48.116;11.656;2023-12-29T15:17:59;10.10;90.70
41924;DHT22;27613;48.116;11.656;2023-12-29T15:20:25;10.00;90.80
41924;DHT22;27613;48.116;11.656;2023-12-29T15:22:50;10.00;90.90
41924;DHT22;27613;48.116;11.656;2023-12-29T15:25:17;10.00;90.90
41924;DHT22;27613;48.116;11.656;2023-12-29T15:27:43;10.00;90.80
41924;DHT22;27613;48.116;11.656;2023-12-29T15:30:09;9.90;90.90
41924;DHT22;27613;48.116;11.656;2023-12-29T15:32:37;9.90;91.00
41924;DHT22;27613;48.116;11.656;2023-12-29T15:35:02;9.90;91.10
41924;DHT22;27613;48.116;11.656;2023-12-29T15:37:28;9.90;91.00